Time;durP1;ratioP1;P1;durP2;ratioP2;P2;SDS_P1;SDS_P2;PMS_P1;PMS_P2;Temp;Humidity;BMP_temperature;BMP_pressure;BME280_temperature;BME280_humidity;BME280_pressure;Samples;Min_cycle;Max_cycle;Signal;HPM_P1;HPM_P2
2022/12/16 00:02:14;;;;;;;66.77;31.13;;;;;;;-145.18;100.00;46709.22;4981385;28;20044;-81
2022/12/16 00:04:39;;;;;;;68.57;33.57;;;;;;;-145.18;100.00;46707.28;4969238;28;20443;-80
2022/12/16 00:07:05;;;;;;;64.07;33.90;;;;;;;-145.18;100.00;46701.41;4992493;28;20041;-81
2022/12/16 00:09:30;;;;;;;75.67;34.87;;;;;;;-145.18;100.00;46699.47;4990138;28;20035;-80
2022/12/16 00:11:56;;;;;;;64.37;30.37;;;;;;;-145.18;100.00;46701.41;4990556;28;20034;-80
2022/12/16 00:14:21;;;;;;;65.40;35.30;;;;;;;-145.18;100.00;46701.41;4990466;28;20042;-80
2022/12/16 00:16:46;;;;;;;58.93;30.80;;;;;;;-145.18;100.00;46705.31;4989963;28;20577;-80
2022/12/16 00:19:12;;;;;;;52.20;28.87;;;;;;;-145.18;100.00;46701.41;4978945;28;20038;-80
2022/12/16 00:21:37;;;;;;;65.33;34.53;;;;;;;-145.18;100.00;46695.56;4988770;28;20101;-80
2022/12/16 00:24:03;;;;;;;63.30;32.80;;;;;;;-145.18;100.00;46711.19;4989072;28;20046;-80
2022/12/16 00:26:30;;;;;;;75.63;36.00;;;;;;;-145.18;100.00;46695.56;4985813;28;20050;-80
2022/12/16 00:28:55;;;;;;;54.85;27.90;;;;;;;-145.18;100.00;46705.31;4972640;28;20125;-80
2022/12/16 00:31:21;;;;;;;66.33;32.70;;;;;;;-145.18;100.00;46697.50;4990102;28;20145;-80
2022/12/16 00:33:46;;;;;;;65.37;33.73;;;;;;;-145.18;100.00;46693.59;4989748;28;20399;-80
2022/12/16 00:36:11;;;;;;;60.23;32.53;;;;;;;-145.18;100.00;46689.69;4988190;28;20422;-80
2022/12/16 00:38:37;;;;;;;56.33;29.63;;;;;;;-145.18;100.00;46705.31;4990108;28;20457;-80
2022/12/16 00:41:02;;;;;;;52.60;27.57;;;;;;;-145.18;100.00;46701.41;4956795;28;20035;-81
2022/12/16 00:43:27;;;;;;;58.37;26.53;;;;;;;-145.18;100.00;46699.47;4990199;28;20030;-81
2022/12/16 00:45:53;;;;;;;50.93;26.90;;;;;;;-145.18;100.00;46689.69;4988553;28;20041;-80
2022/12/16 00:48:21;;;;;;;55.83;24.47;;;;;;;-145.18;100.00;46693.59;4990095;28;20112;-81
2022/12/16 00:50:52;;;;;;;53.03;25.40;;;;;;;-145.18;100.00;46689.69;4993093;28;20018;-81
2022/12/16 00:53:18;;;;;;;49.95;24.33;;;;;;;-145.18;100.00;46691.66;4993902;28;20089;-80
2022/12/16 00:55:43;;;;;;;53.08;25.90;;;;;;;-145.18;100.00;46687.75;4994112;28;20057;-81
2022/12/16 00:58:09;;;;;;;50.73;25.43;;;;;;;-145.18;100.00;46689.69;4993788;28;20070;-81
2022/12/16 01:00:34;;;;;;;51.60;24.37;;;;;;;-145.18;100.00;46691.66;4993287;28;20487;-81
2022/12/16 01:03:00;;;;;;;51.50;26.30;;;;;;;-145.18;100.00;46685.78;4992182;28;20130;-80
2022/12/16 01:05:26;;;;;;;58.33;26.03;;;;;;;-145.18;100.00;46685.78;4993752;28;20036;-81
2022/12/16 01:07:53;;;;;;;48.40;24.40;;;;;;;-145.18;100.00;46689.69;4987345;28;20031;-81
2022/12/16 01:10:19;;;;;;;56.17;25.33;;;;;;;-145.18;100.00;46687.75;4993946;28;20034;-81
2022/12/16 01:12:44;;;;;;;55.08;26.27;;;;;;;-145.18;100.00;46687.75;4992766;28;20499;-81
2022/12/16 01:15:11;;;;;;;57.30;26.33;;;;;;;-145.18;100.00;46677.97;4976147;28;20053;-81
2022/12/16 01:17:38;;;;;;;55.58;27.42;;;;;;;-145.18;100.00;46681.88;4992758;28;20069;-81
2022/12/16 01:20:04;;;;;;;56.17;26.17;;;;;;;-145.18;100.00;46683.84;4993479;28;20046;-80
2022/12/16 01:22:31;;;;;;;53.40;26.60;;;;;;;-145.18;100.00;46677.97;4990901;28;20541;-81
2022/12/16 01:24:57;;;;;;;52.45;27.98;;;;;;;-145.18;100.00;46685.78;4993516;28;20089;-81
2022/12/16 01:27:22;;;;;;;51.27;26.97;;;;;;;-145.18;100.00;46687.75;4992670;28;20034;-81
2022/12/16 01:29:49;;;;;;;59.33;28.97;;;;;;;-145.18;100.00;46677.97;4993050;28;20039;-80
2022/12/16 01:32:14;;;;;;;58.97;30.38;;;;;;;-145.18;100.00;46691.66;4986719;28;20084;-80
2022/12/16 01:34:40;;;;;;;65.53;29.63;;;;;;;-145.18;100.00;46683.84;4992682;28;20438;-80
2022/12/16 01:37:10;;;;;;;65.90;30.42;;;;;;;-145.18;100.00;46683.84;4992095;28;20530;-79
2022/12/16 01:39:35;;;;;;;64.35;30.20;;;;;;;-145.18;100.00;46687.75;4992853;28;20066;-80
2022/12/16 01:42:00;;;;;;;66.53;28.67;;;;;;;-145.18;100.00;46681.88;4985278;28;20066;-81
2022/12/16 01:44:26;;;;;;;58.23;29.77;;;;;;;-145.18;100.00;46683.84;4992468;28;20459;-81
2022/12/16 01:47:02;;;;;;;53.17;27.20;;;;;;;-145.18;100.00;46676.03;4993107;28;20391;-81
2022/12/16 01:49:34;;;;;;;54.63;26.83;;;;;;;-145.18;100.00;46685.78;4992426;28;20034;-81
2022/12/16 01:52:03;;;;;;;60.58;27.63;;;;;;;-145.18;100.00;46683.84;4989857;28;20049;-79
2022/12/16 01:54:34;;;;;;;42.40;22.80;;;;;;;-145.18;100.00;46683.84;4984965;28;20106;-78
2022/12/16 01:57:04;;;;;;;46.92;24.45;;;;;;;-145.18;100.00;46681.88;4992583;28;20411;-80
2022/12/16 01:59:33;;;;;;;42.70;22.58;;;;;;;-145.18;100.00;46685.78;4987720;28;20122;-78
2022/12/16 02:01:58;;;;;;;37.90;20.65;;;;;;;-145.18;100.00;46685.78;4975046;28;20031;-80
2022/12/16 02:04:24;;;;;;;46.83;21.40;;;;;;;-145.18;100.00;46685.78;4976639;28;20403;-80
2022/12/16 02:06:50;;;;;;;40.93;21.73;;;;;;;-145.18;100.00;46683.84;4990624;28;20049;-80
2022/12/16 02:09:16;;;;;;;44.37;22.23;;;;;;;-145.18;100.00;46681.88;4990419;28;20102;-81
2022/12/16 02:12:18;;;;;;;40.72;21.83;;;;;;;-145.18;100.00;46683.84;4973696;28;20097;-80
2022/12/16 02:15:04;;;;;;;41.20;23.30;;;;;;;-145.18;100.00;46679.94;4985529;28;20042;-80
2022/12/16 02:17:40;;;;;;;41.58;21.90;;;;;;;-145.18;100.00;46679.94;4991508;28;20062;-78
2022/12/16 02:20:27;;;;;;;41.30;22.27;;;;;;;-145.18;100.00;46679.94;4973576;28;20624;-78
2022/12/16 02:22:59;;;;;;;42.75;20.88;;;;;;;-145.18;100.00;46689.69;4981876;28;20469;-80
2022/12/16 02:25:53;;;;;;;54.17;23.45;;;;;;;-145.18;100.00;46677.97;4992016;28;20483;-80
2022/12/16 02:28:21;;;;;;;64.63;21.45;;;;;;;-145.18;100.00;46683.84;4964736;28;20157;-80
2022/12/16 02:31:11;;;;;;;98.40;23.33;;;;;;;-145.18;100.00;46683.84;4992673;28;20038;-81
2022/12/16 02:34:00;;;;;;;72.93;24.05;;;;;;;-145.18;100.00;46679.94;4991783;28;20066;-80
2022/12/16 02:36:41;;;;;;;40.65;22.27;;;;;;;-145.18;100.00;46687.75;4989383;28;20730;-80
2022/12/16 02:39:12;;;;;;;38.17;20.65;;;;;;;-145.18;100.00;46693.59;4992050;28;20152;-80
2022/12/16 02:41:46;;;;;;;43.40;21.92;;;;;;;-145.18;100.00;46683.84;4988588;28;20490;-79
2022/12/16 02:44:15;;;;;;;59.05;25.17;;;;;;;-145.18;100.00;46689.69;4991763;28;20038;-79
2022/12/16 02:46:51;;;;;;;47.53;23.23;;;;;;;-145.18;100.00;46683.84;4992279;28;20027;-79
2022/12/16 02:49:16;;;;;;;92.43;24.13;;;;;;;-145.18;100.00;46685.78;4992581;28;20379;-79
2022/12/16 02:51:42;;;;;;;55.77;23.47;;;;;;;-145.18;100.00;46683.84;4988563;28;20019;-80
2022/12/16 02:54:08;;;;;;;36.87;23.03;;;;;;;-145.18;100.00;46687.75;4991107;28;20058;-80
2022/12/16 02:56:56;;;;;;;44.70;25.40;;;;;;;-145.18;100.00;46681.88;4990303;28;20076;-79
2022/12/16 02:59:43;;;;;;;42.85;26.35;;;;;;;-145.18;100.00;46679.94;4984689;28;20042;-77
2022/12/16 03:02:21;;;;;;;37.67;23.95;;;;;;;-145.18;100.00;46691.66;5295991;22;20104;-79
2022/12/16 03:04:56;;;;;;;40.45;23.77;;;;;;;-145.18;100.00;46685.78;5023705;28;20117;-79
2022/12/16 03:07:25;;;;;;;39.13;24.58;;;;;;;-145.18;100.00;46681.88;5007997;28;20142;-79
2022/12/16 03:09:53;;;;;;;36.85;24.50;;;;;;;-145.18;100.00;46685.78;5030915;28;20044;-79
2022/12/16 03:12:20;;;;;;;37.53;23.70;;;;;;;-145.18;100.00;46689.69;5030458;28;20045;-79
2022/12/16 03:14:49;;;;;;;42.15;26.05;;;;;;;-145.18;100.00;46681.88;5030743;28;20049;-79
2022/12/16 03:17:17;;;;;;;38.55;23.35;;;;;;;-145.18;100.00;46687.75;5031132;28;20022;-80
2022/12/16 03:19:48;;;;;;;42.33;24.38;;;;;;;-145.18;100.00;46689.69;5030689;28;20112;-80
2022/12/16 03:22:19;;;;;;;43.65;25.10;;;;;;;-145.18;100.00;46683.84;5030458;28;20131;-80
2022/12/16 03:24:45;;;;;;;48.90;26.02;;;;;;;-145.18;100.00;46691.66;5030721;28;20119;-80
2022/12/16 03:27:40;;;;;;;50.40;27.37;;;;;;;-145.18;100.00;46685.78;5030552;28;20076;-80
2022/12/16 03:30:09;;;;;;;52.45;27.80;;;;;;;-145.18;100.00;46683.84;5030279;28;20436;-81
2022/12/16 03:32:45;;;;;;;46.08;26.85;;;;;;;-145.18;100.00;46683.84;5030582;28;20485;-79
2022/12/16 03:35:12;;;;;;;44.50;24.92;;;;;;;-145.18;100.00;46685.78;5030141;28;20123;-79
2022/12/16 03:37:40;;;;;;;48.75;25.73;;;;;;;-145.18;100.00;46689.69;5030156;28;20045;-79
2022/12/16 03:40:08;;;;;;;33.72;18.98;;;;;;;-145.18;100.00;46685.78;5030743;28;20075;-79
2022/12/16 03:42:35;;;;;;;30.55;16.08;;;;;;;-145.18;100.00;46689.69;5029911;28;20034;-79
2022/12/16 03:45:01;;;;;;;26.30;14.55;;;;;;;-145.18;100.00;46683.84;5030332;28;20482;-79
2022/12/16 03:47:28;;;;;;;23.33;12.38;;;;;;;-145.18;100.00;46689.69;5030372;28;20803;-79
2022/12/16 03:49:53;;;;;;;24.27;13.07;;;;;;;-145.18;100.00;46681.88;5030316;28;20041;-79
2022/12/16 03:52:19;;;;;;;25.90;12.23;;;;;;;-145.18;100.00;46685.78;5030199;28;20043;-81
2022/12/16 03:54:44;;;;;;;23.60;13.27;;;;;;;-145.18;100.00;46683.84;5029293;28;20022;-79
2022/12/16 03:57:09;;;;;;;21.67;11.60;;;;;;;-145.18;100.00;46681.88;5029767;28;20096;-79
2022/12/16 03:59:35;;;;;;;19.67;10.67;;;;;;;-145.18;100.00;46681.88;4995520;28;20037;-79
2022/12/16 04:02:00;;;;;;;23.20;11.00;;;;;;;-145.18;100.00;46691.66;5021417;28;20036;-79
2022/12/16 04:04:25;;;;;;;24.90;11.57;;;;;;;-145.18;100.00;46693.59;5022151;28;20069;-79
2022/12/16 04:07:18;;;;;;;19.17;11.00;;;;;;;-145.18;100.00;46689.69;5017390;28;20044;-79
2022/12/16 04:09:36;;;;;;;20.00;11.00;;;;;;;-145.18;100.00;46683.84;5029840;28;20046;-79
2022/12/16 04:25:45;;;;;;;16.30;8.07;;;;;;;-145.18;100.00;46687.75;5013970;28;20088;-79
2022/12/16 04:28:11;;;;;;;18.80;8.70;;;;;;;-145.18;100.00;46689.69;5014160;28;20034;-78
2022/12/16 04:30:36;;;;;;;16.00;7.10;;;;;;;-145.18;100.00;46691.66;5014743;28;20054;-78
